Time;durP1;ratioP1;P1;durP2;ratioP2;P2;SDS_P1;SDS_P2;PMS_P1;PMS_P2;Temp;Humidity;BMP_temperature;BMP_pressure;BME280_temperature;BME280_humidity;BME280_pressure;Samples;Min_cycle;Max_cycle;Signal;HPM_P1;HPM_P2
2021/09/03 00:00:23;;;;;;;9.45;7.03;;;16.10;99.90;;;;;;4391043;32;20074;-68
2021/09/03 00:02:49;;;;;;;9.05;6.65;;;16.10;99.90;;;;;;4391109;32;20066;-68
2021/09/03 00:05:20;;;;;;;10.88;6.87;;;16.10;99.90;;;;;;4378654;32;20180;-68
2021/09/03 00:07:47;;;;;;;10.23;7.12;;;16.10;99.90;;;;;;4365844;32;20070;-68
2021/09/03 00:10:15;;;;;;;10.10;6.43;;;16.00;99.90;;;;;;4391439;32;20618;-68
2021/09/03 00:12:42;;;;;;;9.00;6.95;;;16.00;99.90;;;;;;4378376;32;20077;-67
2021/09/03 00:15:11;;;;;;;9.68;7.10;;;16.00;99.90;;;;;;4378789;32;20080;-68
2021/09/03 00:17:37;;;;;;;10.02;6.37;;;15.90;99.90;;;;;;4391146;32;20086;-67
2021/09/03 00:20:09;;;;;;;12.88;6.90;;;16.00;99.90;;;;;;4365861;32;20102;-68
2021/09/03 00:22:35;;;;;;;8.93;6.32;;;15.90;99.90;;;;;;4378491;32;20088;-67
2021/09/03 00:25:01;;;;;;;9.00;7.05;;;15.90;99.90;;;;;;4391205;32;20091;-68
2021/09/03 00:27:28;;;;;;;9.35;6.68;;;16.00;99.90;;;;;;4390755;32;20463;-68
2021/09/03 00:29:54;;;;;;;9.63;7.05;;;16.00;99.90;;;;;;4390970;32;20508;-66
2021/09/03 00:32:20;;;;;;;8.93;6.65;;;15.90;99.90;;;;;;4366218;32;20093;-68
2021/09/03 00:34:46;;;;;;;8.00;6.10;;;15.90;99.90;;;;;;4390722;32;20439;-68
2021/09/03 00:37:13;;;;;;;9.75;7.25;;;16.00;99.90;;;;;;4378442;32;20100;-68
2021/09/03 00:40:08;;;;;;;11.23;8.05;;;16.00;99.90;;;;;;3832356;37;20066;-68
2021/09/03 00:42:34;;;;;;;10.45;7.43;;;15.80;99.90;;;;;;4365920;32;20530;-68
2021/09/03 00:45:00;;;;;;;7.93;5.87;;;15.80;99.90;;;;;;4405354;32;20081;-68
2021/09/03 00:47:26;;;;;;;8.23;6.15;;;15.80;99.90;;;;;;4378747;32;20165;-69
2021/09/03 00:49:53;;;;;;;9.13;6.85;;;15.70;99.90;;;;;;4405036;32;20072;-67
2021/09/03 00:52:19;;;;;;;9.48;7.10;;;15.60;99.90;;;;;;4390810;32;20148;-68
2021/09/03 00:54:45;;;;;;;10.52;7.47;;;15.70;99.90;;;;;;4353823;32;20078;-68
2021/09/03 00:57:11;;;;;;;10.75;7.28;;;15.70;99.90;;;;;;4366064;32;20153;-69
2021/09/03 00:59:37;;;;;;;9.88;6.28;;;15.70;99.90;;;;;;4378388;32;20077;-67
2021/09/03 01:02:04;;;;;;;10.27;7.07;;;15.70;99.90;;;;;;4366237;32;20077;-70
2021/09/03 01:04:30;;;;;;;9.40;6.43;;;15.80;99.90;;;;;;4391340;32;20089;-67
2021/09/03 01:06:56;;;;;;;10.30;6.93;;;15.80;99.90;;;;;;4378267;32;20101;-69
2021/09/03 01:09:22;;;;;;;8.98;6.85;;;15.80;99.90;;;;;;4365986;32;20066;-69
2021/09/03 01:11:49;;;;;;;13.85;7.85;;;15.70;99.90;;;;;;4366318;32;20160;-67
2021/09/03 01:14:16;;;;;;;10.93;7.65;;;15.80;99.90;;;;;;4378843;32;20101;-68
2021/09/03 01:16:42;;;;;;;10.90;7.57;;;15.80;99.90;;;;;;4378396;32;20522;-69
2021/09/03 01:19:08;;;;;;;11.95;7.10;;;15.80;99.90;;;;;;4375541;32;20066;-68
2021/09/03 01:21:34;;;;;;;11.05;7.75;;;15.80;99.90;;;;;;4350862;32;20165;-66
2021/09/03 01:24:01;;;;;;;9.80;6.85;;;15.80;99.90;;;;;;4375900;32;20504;-68
2021/09/03 01:26:27;;;;;;;10.13;7.30;;;15.80;99.90;;;;;;4362867;32;20452;-69
2021/09/03 01:28:53;;;;;;;10.70;7.40;;;15.80;99.90;;;;;;4350684;32;20127;-68
2021/09/03 01:31:20;;;;;;;12.60;7.50;;;15.80;99.90;;;;;;4363387;32;20158;-68
2021/09/03 01:33:48;;;;;;;9.63;7.00;;;15.80;99.90;;;;;;4350282;32;20496;-68
2021/09/03 01:36:14;;;;;;;10.68;6.85;;;15.80;99.90;;;;;;4363297;32;20181;-68
2021/09/03 01:38:42;;;;;;;10.15;7.18;;;15.80;99.90;;;;;;4362750;32;20085;-68
2021/09/03 01:41:08;;;;;;;9.85;7.32;;;15.90;99.90;;;;;;4362942;32;20085;-68
2021/09/03 01:43:34;;;;;;;11.38;7.78;;;15.80;99.90;;;;;;4375948;32;20081;-67
2021/09/03 01:46:00;;;;;;;10.52;7.53;;;15.80;99.90;;;;;;4375371;32;20496;-68
2021/09/03 01:48:26;;;;;;;10.90;7.75;;;15.80;99.90;;;;;;4389236;32;20160;-68
2021/09/03 01:50:52;;;;;;;10.27;7.37;;;15.80;99.90;;;;;;4343303;32;20077;-68
2021/09/03 01:53:19;;;;;;;11.93;7.72;;;15.80;99.90;;;;;;4379085;32;20108;-68
2021/09/03 01:55:45;;;;;;;10.90;7.20;;;15.80;99.90;;;;;;4378650;32;20078;-68
2021/09/03 01:58:11;;;;;;;10.35;7.28;;;15.90;99.90;;;;;;4352349;32;20078;-68
2021/09/03 02:00:37;;;;;;;10.18;7.25;;;16.00;99.90;;;;;;4352597;32;20102;-66
2021/09/03 02:03:03;;;;;;;11.32;8.18;;;16.00;99.90;;;;;;4379003;32;20087;-69
2021/09/03 02:05:29;;;;;;;10.38;7.45;;;16.00;99.90;;;;;;4352446;32;20066;-68
2021/09/03 02:07:56;;;;;;;10.02;7.22;;;16.00;99.90;;;;;;4340582;32;20101;-68
2021/09/03 02:10:22;;;;;;;16.33;7.40;;;16.00;99.90;;;;;;4328059;32;20082;-68
2021/09/03 02:12:48;;;;;;;12.18;7.65;;;16.00;99.90;;;;;;4340918;32;20186;-68
2021/09/03 02:15:14;;;;;;;9.20;6.97;;;16.00;99.90;;;;;;4353395;32;20177;-68
2021/09/03 02:17:40;;;;;;;8.52;6.30;;;15.90;99.90;;;;;;4340292;32;20125;-69
2021/09/03 02:20:08;;;;;;;10.43;7.62;;;16.00;99.90;;;;;;4352323;32;20164;-67
2021/09/03 02:22:35;;;;;;;11.10;8.00;;;16.00;99.90;;;;;;4327812;32;20203;-67
2021/09/03 02:25:01;;;;;;;12.37;8.07;;;15.90;99.90;;;;;;4340484;32;20121;-68
2021/09/03 02:27:27;;;;;;;10.85;7.50;;;16.00;99.90;;;;;;4352181;32;20097;-68
2021/09/03 02:29:53;;;;;;;11.07;7.60;;;15.90;99.90;;;;;;4364959;32;20177;-68
2021/09/03 02:32:20;;;;;;;12.18;7.93;;;15.80;99.90;;;;;;4352655;32;20089;-68
2021/09/03 02:34:47;;;;;;;10.93;8.00;;;15.80;99.90;;;;;;4364652;32;20089;-69
2021/09/03 02:37:14;;;;;;;11.57;7.70;;;15.70;99.90;;;;;;4364447;32;20151;-68
2021/09/03 02:39:40;;;;;;;10.90;8.20;;;15.60;99.90;;;;;;4364669;32;20481;-68
2021/09/03 02:42:07;;;;;;;9.70;7.18;;;15.70;99.90;;;;;;4327448;32;20170;-69
2021/09/03 02:44:33;;;;;;;10.70;7.30;;;15.80;99.90;;;;;;4339837;32;20103;-68
2021/09/03 02:46:59;;;;;;;10.45;8.05;;;15.80;99.90;;;;;;4364492;32;20086;-68
2021/09/03 02:49:25;;;;;;;11.77;8.30;;;15.80;99.90;;;;;;4339312;32;20097;-68
2021/09/03 02:51:51;;;;;;;12.45;8.70;;;15.70;99.90;;;;;;4351980;32;20085;-68
2021/09/03 02:54:17;;;;;;;12.45;8.18;;;15.60;99.90;;;;;;4364404;32;20094;-68
2021/09/03 02:56:43;;;;;;;14.52;9.23;;;15.50;99.90;;;;;;4351721;32;20105;-69
2021/09/03 02:59:09;;;;;;;15.25;9.18;;;15.50;99.90;;;;;;4339441;32;20070;-67
2021/09/03 03:01:36;;;;;;;13.38;9.30;;;15.50;99.90;;;;;;4351131;32;20497;-67
2021/09/03 03:04:02;;;;;;;14.20;9.38;;;15.50;99.90;;;;;;4364042;32;20080;-68
2021/09/03 03:06:28;;;;;;;13.38;9.38;;;15.50;99.90;;;;;;4339275;32;20074;-68
2021/09/03 03:08:54;;;;;;;14.13;9.52;;;15.60;99.90;;;;;;4377802;32;20102;-68
2021/09/03 03:11:20;;;;;;;13.57;9.23;;;15.50;99.90;;;;;;4339548;32;20153;-67
2021/09/03 03:13:48;;;;;;;14.45;9.93;;;15.50;99.90;;;;;;4351827;32;20115;-66
2021/09/03 03:16:15;;;;;;;14.50;10.02;;;15.60;99.90;;;;;;4351807;32;20086;-68
2021/09/03 03:18:41;;;;;;;14.85;9.70;;;15.70;99.90;;;;;;4338917;32;20094;-68
2021/09/03 03:21:08;;;;;;;13.05;9.32;;;15.70;99.90;;;;;;4378056;32;20093;-69
2021/09/03 03:23:34;;;;;;;14.65;9.13;;;15.80;99.90;;;;;;4363822;32;20073;-68
2021/09/03 03:26:02;;;;;;;15.77;10.07;;;15.80;99.90;;;;;;4351148;32;20097;-67
2021/09/03 03:28:28;;;;;;;14.30;9.40;;;15.90;99.90;;;;;;4339756;32;20567;-67
2021/09/03 03:30:54;;;;;;;12.93;8.95;;;15.90;99.90;;;;;;4351871;32;20082;-68
2021/09/03 03:33:20;;;;;;;13.40;9.50;;;15.80;99.90;;;;;;4351111;32;20247;-69
2021/09/03 03:35:47;;;;;;;15.82;10.25;;;15.80;99.90;;;;;;4363362;32;20079;-68
2021/09/03 03:38:13;;;;;;;14.43;10.05;;;15.80;99.90;;;;;;4363397;32;20101;-68
2021/09/03 03:40:39;;;;;;;12.77;8.95;;;15.80;99.90;;;;;;4351218;32;20092;-69
2021/09/03 03:43:05;;;;;;;14.60;10.30;;;15.90;99.90;;;;;;4351017;32;20155;-69
2021/09/03 03:45:31;;;;;;;13.65;9.13;;;16.00;99.90;;;;;;4363406;32;20508;-68
2021/09/03 03:47:57;;;;;;;14.35;9.45;;;16.10;99.90;;;;;;4363489;32;20511;-68
2021/09/03 03:50:23;;;;;;;15.10;8.63;;;16.30;99.90;;;;;;4351189;32;20085;-67
2021/09/03 03:52:50;;;;;;;12.15;7.68;;;16.30;99.90;;;;;;4338518;32;20072;-68
2021/09/03 03:55:16;;;;;;;11.65;7.47;;;16.10;99.90;;;;;;4314511;32;20161;-69
2021/09/03 03:57:42;;;;;;;10.73;7.32;;;16.10;99.90;;;;;;4326385;32;20086;-68
2021/09/03 04:00:09;;;;;;;10.43;7.15;;;16.10;99.90;;;;;;4326507;32;20550;-69
2021/09/03 04:02:35;;;;;;;13.07;7.68;;;16.10;99.90;;;;;;4363212;32;20493;-68
2021/09/03 04:05:02;;;;;;;12.02;8.30;;;16.10;99.90;;;;;;4351209;32;20635;-69
2021/09/03 04:07:28;;;;;;;12.13;8.35;;;16.20;99.90;;;;;;4351153;32;20175;-68
2021/09/03 04:09:54;;;;;;;11.50;7.90;;;16.10;99.90;;;;;;4363550;32;20086;-68
2021/09/03 04:12:20;;;;;;;12.27;7.72;;;16.20;99.90;;;;;;4350752;32;20116;-68
2021/09/03 04:14:46;;;;;;;12.00;8.35;;;16.50;99.90;;;;;;4350485;32;20071;-67
2021/09/03 04:17:12;;;;;;;10.82;6.80;;;16.40;99.90;;;;;;4376874;32;20074;-68
2021/09/03 04:19:39;;;;;;;13.25;8.25;;;16.40;99.90;;;;;;4338349;32;20144;-68
2021/09/03 04:22:05;;;;;;;10.70;7.47;;;16.30;99.90;;;;;;4350191;32;20519;-68
2021/09/03 04:24:31;;;;;;;10.35;7.50;;;16.40;99.90;;;;;;4363033;32;20581;-67
2021/09/03 04:26:59;;;;;;;10.35;7.30;;;16.50;99.90;;;;;;4350599;32;20074;-68
2021/09/03 04:29:26;;;;;;;12.05;8.13;;;16.50;99.90;;;;;;4350783;32;20100;-68
2021/09/03 04:31:52;;;;;;;11.63;8.25;;;16.60;99.90;;;;;;4363651;32;20085;-68
2021/09/03 04:34:18;;;;;;;12.70;8.10;;;16.60;99.90;;;;;;4350841;32;20096;-68
2021/09/03 04:36:44;;;;;;;11.02;8.15;;;16.50;99.90;;;;;;4338576;32;20591;-68
2021/09/03 04:39:10;;;;;;;11.02;8.15;;;16.40;99.90;;;;;;4362686;32;20082;-68
2021/09/03 04:41:36;;;;;;;11.18;7.50;;;16.50;99.90;;;;;;4350242;32;20070;-68
2021/09/03 04:44:03;;;;;;;11.95;8.80;;;16.60;99.90;;;;;;4376924;32;20089;-66
2021/09/03 04:46:29;;;;;;;13.38;7.50;;;16.50;99.90;;;;;;4362866;32;20074;-67
2021/09/03 04:48:55;;;;;;;10.63;7.47;;;16.50;99.90;;;;;;4350309;32;20596;-67
2021/09/03 04:51:22;;;;;;;10.45;7.00;;;16.70;99.90;;;;;;4350420;32;20500;-69
2021/09/03 04:53:48;;;;;;;10.68;7.50;;;16.60;99.90;;;;;;4362811;32;20062;-68
2021/09/03 04:56:14;;;;;;;10.75;7.10;;;16.80;99.90;;;;;;4350287;32;20075;-68
2021/09/03 04:58:40;;;;;;;11.43;7.72;;;16.90;99.90;;;;;;4351951;32;20077;-68
2021/09/03 05:01:06;;;;;;;13.68;7.18;;;17.00;99.90;;;;;;4364866;32;20145;-67
2021/09/03 05:03:32;;;;;;;11.25;7.00;;;17.10;99.90;;;;;;4351272;32;20094;-70
2021/09/03 05:05:58;;;;;;;12.50;7.40;;;17.20;99.90;;;;;;4351023;32;20106;-68
2021/09/03 05:08:24;;;;;;;11.77;7.18;;;17.10;99.90;;;;;;4338444;32;20090;-68
2021/09/03 05:10:51;;;;;;;11.52;7.65;;;17.10;99.90;;;;;;4362595;32;20076;-68
2021/09/03 05:13:17;;;;;;;12.40;7.62;;;17.00;99.90;;;;;;4326211;32;20090;-67
2021/09/03 05:15:43;;;;;;;11.85;8.10;;;17.20;99.90;;;;;;4338113;32;20078;-68
2021/09/03 05:18:09;;;;;;;10.98;7.18;;;17.40;99.90;;;;;;4338072;32;20171;-66
2021/09/03 05:20:36;;;;;;;14.43;8.10;;;17.20;99.90;;;;;;4338290;32;20448;-66
2021/09/03 05:23:02;;;;;;;11.15;7.75;;;17.40;99.90;;;;;;4350545;32;20071;-67
2021/09/03 05:25:28;;;;;;;9.65;7.22;;;17.20;99.90;;;;;;4339153;32;20081;-68
2021/09/03 05:27:54;;;;;;;12.35;8.30;;;17.30;99.90;;;;;;4353726;32;20115;-66
2021/09/03 05:30:21;;;;;;;14.93;9.27;;;17.60;99.90;;;;;;4353348;32;20074;-68
2021/09/03 05:32:47;;;;;;;14.68;9.18;;;17.20;99.90;;;;;;4365207;32;20078;-68
2021/09/03 05:35:13;;;;;;;14.87;10.15;;;17.40;99.90;;;;;;4341081;32;20074;-68
2021/09/03 05:37:40;;;;;;;16.20;8.75;;;17.30;99.90;;;;;;4353284;32;20154;-68
2021/09/03 05:40:07;;;;;;;14.60;10.27;;;17.20;99.90;;;;;;4365655;32;20140;-68
2021/09/03 05:42:33;;;;;;;14.95;9.43;;;17.20;99.90;;;;;;4353485;32;20069;-69
2021/09/03 05:44:59;;;;;;;15.65;10.80;;;17.20;99.90;;;;;;4340894;32;20082;-68
2021/09/03 05:47:25;;;;;;;17.65;11.80;;;16.90;99.90;;;;;;4352553;32;20074;-68
2021/09/03 05:49:52;;;;;;;16.65;11.70;;;16.80;99.90;;;;;;4352837;32;20546;-68
2021/09/03 05:52:18;;;;;;;13.32;9.85;;;16.90;99.90;;;;;;4340746;32;20579;-66
2021/09/03 05:54:44;;;;;;;16.02;11.25;;;16.80;99.90;;;;;;4340237;32;20162;-68
2021/09/03 05:57:10;;;;;;;15.52;10.85;;;16.90;99.90;;;;;;4365034;32;20085;-68
2021/09/03 05:59:45;;;;;;;15.07;10.00;;;16.80;99.90;;;;;;3857659;37;20057;-68
2021/09/03 06:02:11;;;;;;;15.18;9.70;;;16.90;99.90;;;;;;4418971;32;20109;-68
2021/09/03 06:04:38;;;;;;;14.80;10.52;;;17.00;99.90;;;;;;4393255;32;20538;-68
2021/09/03 06:07:04;;;;;;;16.17;10.95;;;17.00;99.90;;;;;;4381131;32;20079;-67
2021/09/03 06:09:30;;;;;;;16.83;10.30;;;16.90;99.90;;;;;;4406085;32;20141;-66
2021/09/03 06:11:57;;;;;;;21.40;10.35;;;17.00;99.90;;;;;;4401611;32;20194;-69
2021/09/03 06:14:23;;;;;;;16.52;10.63;;;17.10;99.90;;;;;;4398455;32;20057;-72
2021/09/03 06:16:50;;;;;;;16.02;10.65;;;17.30;99.90;;;;;;4365893;32;20499;-72
2021/09/03 06:19:17;;;;;;;13.20;9.27;;;17.40;99.90;;;;;;4405989;32;20591;-72
2021/09/03 06:21:43;;;;;;;17.17;8.93;;;17.60;99.90;;;;;;4382692;32;20073;-71
2021/09/03 06:24:28;;;;;;;14.18;8.60;;;17.80;99.90;;;;;;4366579;32;20093;-71
2021/09/03 06:26:56;;;;;;;10.90;7.03;;;17.80;99.90;;;;;;4391977;32;20062;-69
2021/09/03 06:32:20;;;;;;;11.25;7.28;;;17.30;99.90;;;;;;4397690;32;20078;-71
2021/09/03 10:00:17;;;;;;;2.05;1.60;;;16.40;99.90;;;;;;3839608;37;20644;-64
2021/09/03 10:02:44;;;;;;;2.37;1.15;;;16.30;99.90;;;;;;4394016;32;20152;-63
2021/09/03 10:05:10;;;;;;;2.10;1.80;;;16.40;99.90;;;;;;4392462;32;20080;-64
2021/09/03 10:07:38;;;;;;;2.55;1.20;;;16.40;99.90;;;;;;4377982;32;20077;-65
2021/09/03 10:10:05;;;;;;;1.42;1.02;;;16.50;99.90;;;;;;4369597;32;20104;-63
2021/09/03 10:12:34;;;;;;;2.00;1.30;;;16.50;99.90;;;;;;4391670;32;20057;-64
2021/09/03 10:15:08;;;;;;;2.28;1.50;;;16.50;99.90;;;;;;3838000;37;20270;-65
2021/09/03 10:17:35;;;;;;;2.75;1.48;;;16.30;99.90;;;;;;4387100;32;20236;-65
2021/09/03 10:20:01;;;;;;;1.85;1.35;;;16.30;99.90;;;;;;4370146;32;20615;-66
2021/09/03 10:22:27;;;;;;;2.05;1.80;;;16.40;99.90;;;;;;4379903;32;20070;-65
2021/09/03 10:25:12;;;;;;;4.22;1.70;;;16.50;99.90;;;;;;4376533;32;20075;-64
2021/09/03 10:27:39;;;;;;;2.33;1.45;;;16.70;99.90;;;;;;4388030;32;20215;-65
2021/09/03 10:30:21;;;;;;;3.33;1.70;;;16.60;99.90;;;;;;4349690;32;20163;-64
2021/09/03 10:32:47;;;;;;;2.67;1.98;;;16.80;99.90;;;;;;4378592;32;20149;-64
2021/09/03 10:35:21;;;;;;;2.10;1.50;;;17.20;99.90;;;;;;4379780;32;20100;-63
2021/09/03 10:37:49;;;;;;;1.70;1.40;;;16.60;99.90;;;;;;4358229;32;20077;-64
2021/09/03 10:40:40;;;;;;;2.70;1.70;;;16.70;99.90;;;;;;4358666;32;20085;-63
2021/09/03 10:43:06;;;;;;;1.55;1.45;;;16.70;99.90;;;;;;4380875;32;20198;-64
2021/09/03 10:45:38;;;;;;;2.62;1.70;;;16.80;99.90;;;;;;4358700;32;20089;-65
2021/09/03 10:48:12;;;;;;;4.37;2.15;;;16.70;99.90;;;;;;4383528;32;20081;-64
2021/09/03 10:50:47;;;;;;;2.42;1.37;;;16.60;99.90;;;;;;4384548;32;20089;-63
2021/09/03 10:53:21;;;;;;;4.37;2.87;;;16.60;99.90;;;;;;4381807;32;20085;-62
2021/09/03 10:56:05;;;;;;;3.37;1.73;;;16.50;99.90;;;;;;4346564;32;20085;-62
2021/09/03 10:58:58;;;;;;;3.33;1.48;;;16.70;99.90;;;;;;4370074;32;20077;-63
2021/09/03 11:01:25;;;;;;;2.40;1.73;;;16.30;99.90;;;;;;4377299;32;20177;-63
2021/09/03 11:04:03;;;;;;;2.92;1.90;;;16.10;99.90;;;;;;4388299;32;20109;-64
2021/09/03 11:06:36;;;;;;;3.00;1.70;;;16.40;99.90;;;;;;4379968;32;20057;-63
2021/09/03 11:09:26;;;;;;;2.90;1.95;;;16.20;99.90;;;;;;4375325;32;20073;-64
2021/09/03 11:12:02;;;;;;;3.20;2.03;;;16.20;99.90;;;;;;4378584;32;20102;-65
2021/09/03 11:14:29;;;;;;;3.00;2.20;;;16.20;99.90;;;;;;4377810;32;20081;-65
2021/09/03 11:17:12;;;;;;;2.87;1.92;;;16.00;99.90;;;;;;4369992;32;20089;-62
2021/09/03 11:22:24;;;;;;;2.20;1.58;;;16.00;99.90;;;;;;3839649;37;20085;-63
2021/09/03 11:24:52;;;;;;;2.92;2.00;;;16.20;99.90;;;;;;4341188;32;20081;-64
2021/09/03 11:27:26;;;;;;;2.42;2.00;;;16.10;99.90;;;;;;4393961;32;20092;-63
2021/09/03 11:29:58;;;;;;;2.90;1.60;;;16.20;99.90;;;;;;4377660;32;20100;-65
2021/09/03 11:32:26;;;;;;;3.78;2.05;;;16.10;99.90;;;;;;4377944;32;20093;-65
2021/09/03 11:34:58;;;;;;;3.47;1.80;;;16.20;99.90;;;;;;4390374;32;20084;-63
2021/09/03 11:37:36;;;;;;;1.67;1.45;;;16.00;99.90;;;;;;4394457;32;20077;-63
2021/09/03 11:40:07;;;;;;;1.83;1.52;;;16.10;99.90;;;;;;4378170;32;20454;-63
2021/09/03 11:42:36;;;;;;;2.08;1.87;;;15.80;99.90;;;;;;4388973;32;20082;-63
2021/09/03 11:45:12;;;;;;;2.58;1.67;;;15.90;99.90;;;;;;4383341;32;20451;-64
2021/09/03 11:48:03;;;;;;;2.35;1.73;;;15.90;99.90;;;;;;4391041;32;20058;-63
2021/09/03 11:50:40;;;;;;;2.05;1.60;;;15.90;99.90;;;;;;4390515;32;20066;-66
2021/09/03 11:53:26;;;;;;;2.35;1.40;;;15.80;99.90;;;;;;4343568;32;20655;-63
2021/09/03 11:55:53;;;;;;;3.50;1.50;;;16.00;99.90;;;;;;4362431;32;20094;-62
2021/09/03 11:58:26;;;;;;;2.95;1.83;;;15.90;99.90;;;;;;4366330;32;20499;-62
2021/09/03 12:00:56;;;;;;;2.97;1.52;;;15.80;99.90;;;;;;4346209;32;20089;-63
2021/09/03 12:03:43;;;;;;;3.65;1.90;;;15.80;99.90;;;;;;4357280;32;20159;-64
2021/09/03 12:06:14;;;;;;;2.15;1.70;;;15.50;99.90;;;;;;4358008;32;20399;-65
2021/09/03 12:08:40;;;;;;;2.53;1.58;;;15.60;99.90;;;;;;4366680;32;20086;-66
2021/09/03 12:11:16;;;;;;;1.80;1.58;;;15.70;99.90;;;;;;4364369;32;20154;-66
2021/09/03 12:13:56;;;;;;;3.03;2.10;;;15.50;99.90;;;;;;4354583;32;20178;-65
2021/09/03 12:16:24;;;;;;;2.60;1.90;;;15.70;99.90;;;;;;4373929;32;20569;-66
2021/09/03 12:18:56;;;;;;;2.35;1.90;;;15.40;99.90;;;;;;4362092;32;20475;-66
2021/09/03 12:21:27;;;;;;;2.37;1.70;;;15.30;99.90;;;;;;4343910;32;20166;-68
2021/09/03 12:23:54;;;;;;;3.03;2.12;;;15.20;99.90;;;;;;4355492;32;20106;-65
2021/09/03 12:26:23;;;;;;;4.32;1.92;;;15.30;99.90;;;;;;4356563;32;20518;-64
2021/09/03 12:28:51;;;;;;;3.03;1.90;;;15.20;99.90;;;;;;4340858;32;20084;-69
2021/09/03 12:31:33;;;;;;;2.65;2.00;;;15.30;99.90;;;;;;4360931;32;20159;-66
2021/09/03 12:34:02;;;;;;;2.80;2.00;;;15.30;99.90;;;;;;4360518;32;20062;-66
2021/09/03 12:36:33;;;;;;;2.92;1.98;;;15.10;99.90;;;;;;4353185;32;20063;-65
2021/09/03 12:39:04;;;;;;;3.50;2.10;;;15.00;99.90;;;;;;4354666;32;20059;-69
2021/09/03 12:41:39;;;;;;;3.72;2.10;;;15.10;99.90;;;;;;4347175;32;20156;-66
2021/09/03 12:44:10;;;;;;;3.00;1.98;;;14.90;99.90;;;;;;4340063;32;20121;-65
2021/09/03 12:46:43;;;;;;;4.70;2.40;;;14.80;99.90;;;;;;4345055;32;20073;-63
2021/09/03 12:49:13;;;;;;;3.97;1.95;;;14.90;99.90;;;;;;4344776;32;20538;-65
2021/09/03 12:51:44;;;;;;;3.67;2.30;;;14.70;99.90;;;;;;4363491;32;20185;-64
2021/09/03 12:54:13;;;;;;;3.35;2.03;;;14.80;99.90;;;;;;4343195;32;20101;-74
2021/09/03 12:56:40;;;;;;;3.22;1.85;;;14.80;99.90;;;;;;4338013;32;20155;-67
2021/09/03 12:59:06;;;;;;;4.30;1.90;;;14.60;99.90;;;;;;4360571;32;20190;-68
2021/09/03 13:01:33;;;;;;;4.15;2.30;;;14.70;99.90;;;;;;4361536;32;20071;-67
2021/09/03 13:03:59;;;;;;;5.15;2.42;;;14.60;99.90;;;;;;4348242;32;20507;-72
2021/09/03 13:06:26;;;;;;;3.08;2.15;;;14.60;99.90;;;;;;4347509;32;20086;-71
2021/09/03 13:08:52;;;;;;;3.75;2.47;;;14.70;99.90;;;;;;4361661;32;20175;-71
2021/09/03 13:11:19;;;;;;;3.22;2.20;;;14.60;99.90;;;;;;4355523;32;20208;-74
2021/09/03 13:13:47;;;;;;;3.20;2.35;;;14.60;99.90;;;;;;4350023;32;20213;-74
2021/09/03 13:16:13;;;;;;;4.10;2.75;;;14.60;99.90;;;;;;4344468;32;20592;-73
2021/09/03 13:18:39;;;;;;;3.20;2.28;;;14.70;99.90;;;;;;4354900;32;20114;-69
2021/09/03 13:21:06;;;;;;;5.25;2.65;;;14.80;99.90;;;;;;4362607;32;20098;-72
2021/09/03 13:23:32;;;;;;;4.72;2.97;;;14.70;99.90;;;;;;4339412;32;20117;-69
2021/09/03 13:25:58;;;;;;;3.87;2.40;;;14.60;99.90;;;;;;4338938;32;20069;-70
2021/09/03 13:28:25;;;;;;;3.12;2.00;;;14.50;99.90;;;;;;4345876;32;20065;-70
2021/09/03 13:30:51;;;;;;;3.65;2.30;;;14.50;99.90;;;;;;4344513;32;20203;-65
2021/09/03 13:33:17;;;;;;;2.92;2.08;;;14.70;99.90;;;;;;4348774;32;20499;-70
2021/09/03 13:35:44;;;;;;;3.62;2.10;;;14.50;99.90;;;;;;4365655;32;20087;-71
2021/09/03 13:38:11;;;;;;;2.40;1.80;;;14.50;99.90;;;;;;4336278;32;20500;-70
2021/09/03 13:40:37;;;;;;;3.30;2.03;;;14.50;99.90;;;;;;4356952;32;20155;-68
2021/09/03 13:43:04;;;;;;;3.25;2.30;;;14.40;99.90;;;;;;4365536;32;20061;-73
2021/09/03 13:45:37;;;;;;;4.40;1.83;;;14.30;99.90;;;;;;4342131;32;20086;-74
2021/09/03 13:48:07;;;;;;;4.00;1.83;;;14.40;99.90;;;;;;4356569;32;20113;-64
2021/09/03 13:50:37;;;;;;;3.80;2.05;;;14.40;99.90;;;;;;4343598;32;20077;-70
2021/09/03 13:53:03;;;;;;;3.00;2.08;;;14.50;99.90;;;;;;4342168;32;20078;-65
2021/09/03 13:55:30;;;;;;;3.70;2.12;;;14.30;99.90;;;;;;4349453;32;20510;-72
2021/09/03 13:57:56;;;;;;;6.07;1.87;;;14.50;99.90;;;;;;4356946;32;20094;-70
2021/09/03 14:00:22;;;;;;;2.83;1.20;;;14.40;99.90;;;;;;4361633;32;20074;-70
2021/09/03 14:02:48;;;;;;;2.80;2.03;;;14.30;99.90;;;;;;4358581;32;20082;-65
2021/09/03 14:05:14;;;;;;;3.75;1.37;;;14.30;99.90;;;;;;4361049;32;20082;-68
2021/09/03 14:07:41;;;;;;;2.50;1.70;;;14.10;99.90;;;;;;4361080;32;20050;-66
2021/09/03 14:11:57;;;;;;;2.15;1.55;;;14.20;99.90;;;;;;3811467;37;20469;-68
2021/09/03 14:14:23;;;;;;;2.92;2.00;;;14.10;99.90;;;;;;4362760;32;20146;-66
2021/09/03 14:16:50;;;;;;;2.17;1.80;;;14.00;99.90;;;;;;4376080;32;20085;-68
2021/09/03 14:19:16;;;;;;;3.08;1.95;;;14.10;99.90;;;;;;4383602;32;20070;-65
2021/09/03 14:21:42;;;;;;;3.30;1.70;;;14.00;99.90;;;;;;4365313;32;20084;-64
2021/09/03 14:24:08;;;;;;;2.08;1.55;;;13.90;99.90;;;;;;4365233;32;20084;-64
2021/09/03 14:26:34;;;;;;;2.92;2.03;;;13.90;99.90;;;;;;4362758;32;20078;-64
2021/09/03 14:29:01;;;;;;;3.55;2.22;;;13.80;99.90;;;;;;4350986;32;20090;-64
2021/09/03 14:31:28;;;;;;;3.30;2.10;;;13.90;99.90;;;;;;4386994;32;20085;-66
2021/09/03 14:33:55;;;;;;;3.70;2.10;;;13.70;99.90;;;;;;4365803;32;20068;-63
2021/09/03 14:36:21;;;;;;;3.15;1.90;;;13.80;99.90;;;;;;4367779;32;20455;-64
2021/09/03 14:38:48;;;;;;;4.97;1.90;;;13.70;99.90;;;;;;4364403;32;20069;-63
2021/09/03 14:41:14;;;;;;;3.47;1.90;;;13.70;99.90;;;;;;4362902;32;20101;-63
2021/09/03 14:43:41;;;;;;;2.95;2.00;;;13.60;99.90;;;;;;4375058;32;20078;-64
2021/09/03 14:46:07;;;;;;;5.05;2.12;;;13.70;99.90;;;;;;4367237;32;20065;-65
2021/09/03 14:48:37;;;;;;;3.90;2.37;;;13.50;99.90;;;;;;4361497;32;20097;-65
2021/09/03 14:51:03;;;;;;;6.55;3.30;;;13.60;99.90;;;;;;4360263;32;20097;-64
2021/09/03 14:53:29;;;;;;;7.93;3.95;;;13.60;99.90;;;;;;4371893;32;20094;-63
2021/09/03 14:55:55;;;;;;;4.70;2.53;;;13.60;99.90;;;;;;4347915;32;20157;-65
2021/09/03 14:58:22;;;;;;;4.10;2.20;;;13.60;99.90;;;;;;4335828;32;20162;-64
2021/09/03 15:00:48;;;;;;;4.15;2.53;;;13.50;99.90;;;;;;4347717;32;20223;-63
2021/09/03 15:03:14;;;;;;;4.95;2.25;;;13.50;99.90;;;;;;4347952;32;20082;-64
2021/09/03 15:05:40;;;;;;;4.62;2.05;;;13.30;99.90;;;;;;4359858;32;20198;-62
2021/09/03 15:08:06;;;;;;;2.62;2.00;;;13.30;99.90;;;;;;4335824;32;20074;-63
2021/09/03 15:10:32;;;;;;;3.35;2.20;;;13.30;99.90;;;;;;4347696;32;20085;-62
2021/09/03 15:12:58;;;;;;;2.72;2.03;;;13.20;99.90;;;;;;4346660;32;20507;-63
2021/09/03 15:15:25;;;;;;;4.30;2.30;;;13.20;99.90;;;;;;4335645;32;20129;-65
2021/09/03 15:17:51;;;;;;;3.20;2.22;;;13.00;99.90;;;;;;4347291;32;20627;-62
2021/09/03 15:20:17;;;;;;;2.85;2.03;;;13.00;99.90;;;;;;4371759;32;20089;-64
2021/09/03 15:22:44;;;;;;;3.42;2.10;;;13.10;99.90;;;;;;4352492;32;20175;-62
2021/09/03 15:25:11;;;;;;;3.95;2.08;;;13.00;99.90;;;;;;4338100;32;20112;-62
2021/09/03 15:27:37;;;;;;;3.45;2.12;;;12.90;99.90;;;;;;4326710;32;20078;-62
2021/09/03 16:05:29;;;;;;;3.30;1.80;;;12.10;99.90;;;;;;4364074;32;20154;-65
2021/09/03 16:07:56;;;;;;;2.47;1.80;;;12.10;99.90;;;;;;4325425;32;20527;-64
2021/09/03 16:10:22;;;;;;;3.90;2.22;;;12.00;99.90;;;;;;4337284;32;20094;-64
2021/09/03 16:12:50;;;;;;;4.82;2.03;;;12.00;99.90;;;;;;4325454;32;20094;-65
2021/09/03 16:15:16;;;;;;;3.25;1.98;;;12.10;99.90;;;;;;4325339;32;20084;-65
2021/09/03 16:17:43;;;;;;;4.53;2.10;;;12.10;99.90;;;;;;4362264;32;20104;-65
2021/09/03 16:20:10;;;;;;;4.65;2.40;;;12.10;99.90;;;;;;4337101;32;20086;-65
2021/09/03 16:22:36;;;;;;;3.10;2.12;;;12.00;99.90;;;;;;4337002;32;20500;-66
2021/09/03 16:25:03;;;;;;;3.47;2.40;;;11.90;99.90;;;;;;4336730;32;20082;-65
2021/09/03 16:52:29;;;;;;;2.55;2.12;;;10.90;99.90;;;;;;4362707;32;20085;-67
2021/09/03 16:54:55;;;;;;;3.03;1.90;;;10.80;99.90;;;;;;4362176;32;20553;-66
2021/09/03 16:57:22;;;;;;;4.40;2.05;;;10.70;99.90;;;;;;4361710;32;20126;-66
2021/09/03 16:59:48;;;;;;;5.28;2.20;;;10.70;99.90;;;;;;4348432;32;20074;-67
2021/09/03 17:02:14;;;;;;;3.58;2.10;;;10.70;99.90;;;;;;4348556;32;20074;-65
2021/09/03 17:04:40;;;;;;;2.45;1.65;;;10.80;99.90;;;;;;4348938;32;20094;-66
2021/09/03 17:07:06;;;;;;;3.20;1.87;;;10.70;99.90;;;;;;4324489;32;20533;-66
2021/09/03 17:09:33;;;;;;;6.62;2.00;;;10.70;99.90;;;;;;4324254;32;20460;-65
2021/09/03 17:11:59;;;;;;;3.35;2.08;;;10.80;99.90;;;;;;4336472;32;20089;-65
2021/09/03 17:14:25;;;;;;;3.03;1.70;;;10.60;99.90;;;;;;4348622;32;20157;-66
2021/09/03 17:16:51;;;;;;;4.03;2.05;;;10.70;99.90;;;;;;4325169;32;20089;-67
2021/09/03 17:19:18;;;;;;;6.32;2.40;;;10.70;99.90;;;;;;4348766;32;20102;-65